Time;durP1;ratioP1;P1;durP2;ratioP2;P2;SDS_P1;SDS_P2;PMS_P1;PMS_P2;Temp;Humidity;BMP_temperature;BMP_pressure;BME280_temperature;BME280_humidity;BME280_pressure;Samples;Min_cycle;Max_cycle;Signal;HPM_P1;HPM_P2
2022/03/12 00:01:57;;;;;;;6.00;5.50;;;11.00;99.90;;;;;;5072830;28;20711;-79
2022/03/12 00:04:26;;;;;;;6.53;5.80;;;11.00;99.90;;;;;;5072954;28;20660;-80
2022/03/12 00:06:53;;;;;;;5.40;5.00;;;11.00;99.90;;;;;;5076428;28;20722;-79
2022/03/12 00:09:21;;;;;;;7.13;5.97;;;11.00;99.90;;;;;;5077318;28;20261;-79
2022/03/12 00:11:49;;;;;;;5.90;5.40;;;11.00;99.90;;;;;;5076383;28;20201;-89
2022/03/12 00:14:17;;;;;;;5.93;5.37;;;11.00;99.90;;;;;;5076920;28;20317;-80
2022/03/12 00:16:46;;;;;;;6.20;5.70;;;10.80;99.90;;;;;;5076629;28;20551;-83
2022/03/12 00:19:13;;;;;;;6.22;5.65;;;10.80;99.90;;;;;;5077064;28;20853;-79
2022/03/12 00:21:48;;;;;;;6.93;5.70;;;10.90;99.90;;;;;;5076670;28;20197;-79
2022/03/12 00:24:15;;;;;;;7.80;6.00;;;10.90;99.90;;;;;;5076539;28;20562;-90
2022/03/12 00:26:43;;;;;;;6.57;5.97;;;11.00;99.90;;;;;;5076209;28;20500;-79
2022/03/12 00:29:14;;;;;;;8.03;6.03;;;11.00;99.90;;;;;;5076764;28;20237;-79
2022/03/12 00:31:41;;;;;;;6.53;5.93;;;11.00;99.90;;;;;;5076634;28;20233;-78
2022/03/12 00:34:08;;;;;;;6.40;5.80;;;10.90;99.90;;;;;;5076444;28;20194;-80
2022/03/12 00:36:35;;;;;;;6.80;5.93;;;10.90;99.90;;;;;;5076643;28;20212;-78
2022/03/12 00:39:04;;;;;;;6.97;6.37;;;10.80;99.90;;;;;;5076665;28;20765;-79
2022/03/12 00:41:32;;;;;;;6.17;5.70;;;10.80;99.90;;;;;;5075922;28;20578;-84
2022/03/12 00:43:59;;;;;;;7.40;6.80;;;10.80;99.90;;;;;;5075479;28;20892;-90
2022/03/12 00:46:26;;;;;;;6.83;6.23;;;10.90;99.90;;;;;;5076460;28;20186;-79
2022/03/12 00:48:53;;;;;;;6.50;6.00;;;10.80;99.90;;;;;;5075880;28;20272;-78
2022/03/12 00:51:21;;;;;;;6.90;6.20;;;10.90;99.90;;;;;;5076018;28;20213;-80
2022/03/12 00:53:47;;;;;;;5.77;5.37;;;10.90;99.90;;;;;;5076351;28;20220;-87
2022/03/12 00:56:18;;;;;;;6.53;5.43;;;10.90;99.90;;;;;;5076822;28;20208;-78
2022/03/12 00:58:47;;;;;;;6.20;5.67;;;10.90;99.90;;;;;;5076017;28;20285;-81
2022/03/12 01:01:17;;;;;;;6.47;5.87;;;10.80;99.90;;;;;;5076902;28;20216;-78
2022/03/12 01:03:44;;;;;;;10.67;6.07;;;10.80;99.90;;;;;;5077377;28;20251;-80
2022/03/12 01:06:14;;;;;;;6.73;6.00;;;10.80;99.90;;;;;;5077104;28;20209;-81
2022/03/12 01:08:41;;;;;;;6.40;5.90;;;10.80;99.90;;;;;;5077315;28;20244;-84
2022/03/12 01:11:10;;;;;;;6.83;5.17;;;10.90;99.90;;;;;;5077642;28;20578;-81
2022/03/12 01:13:39;;;;;;;5.70;5.27;;;10.90;99.90;;;;;;5077941;28;20226;-82
2022/03/12 01:16:08;;;;;;;4.90;4.60;;;11.00;99.90;;;;;;5077207;28;20590;-88
2022/03/12 01:18:38;;;;;;;4.80;4.40;;;10.90;99.90;;;;;;5075636;28;20217;-81
2022/03/12 01:21:09;;;;;;;6.30;4.97;;;10.90;99.90;;;;;;5076584;28;20208;-87
2022/03/12 01:23:36;;;;;;;6.13;5.60;;;10.90;99.90;;;;;;5076467;28;20228;-80
2022/03/12 01:26:03;;;;;;;6.13;5.27;;;10.90;99.90;;;;;;5076248;28;20202;-81
2022/03/12 01:28:31;;;;;;;5.23;4.83;;;10.90;99.90;;;;;;5075697;28;20230;-86
2022/03/12 01:31:00;;;;;;;4.87;4.53;;;10.90;99.90;;;;;;5075461;28;20667;-88
2022/03/12 01:33:28;;;;;;;5.80;5.40;;;10.90;99.90;;;;;;5074803;28;20926;-82
2022/03/12 01:35:55;;;;;;;5.40;5.00;;;11.10;99.90;;;;;;5075193;28;20646;-90
2022/03/12 01:38:30;;;;;;;5.10;4.70;;;11.00;99.90;;;;;;5075691;28;20210;-79
2022/03/12 01:41:03;;;;;;;4.67;4.37;;;11.10;99.90;;;;;;5075063;28;20201;-81
2022/03/12 01:43:32;;;;;;;5.03;4.60;;;11.00;99.90;;;;;;5074821;28;20197;-79
2022/03/12 01:46:02;;;;;;;5.47;5.00;;;11.00;99.90;;;;;;5075318;28;20220;-90
2022/03/12 01:48:30;;;;;;;4.77;4.37;;;10.90;99.90;;;;;;5074469;28;20233;-79
2022/03/12 01:50:58;;;;;;;4.97;4.30;;;10.80;99.90;;;;;;5074993;28;20202;-80
2022/03/12 01:53:27;;;;;;;4.83;4.30;;;10.80;99.90;;;;;;5074932;28;20213;-83
2022/03/12 01:55:56;;;;;;;5.27;4.27;;;10.70;99.90;;;;;;5075667;28;20223;-91
2022/03/12 01:58:23;;;;;;;4.50;4.10;;;10.60;99.90;;;;;;5074893;28;20194;-89
2022/03/12 02:00:53;;;;;;;6.43;4.30;;;10.60;99.90;;;;;;5075005;28;20205;-81
2022/03/12 02:03:23;;;;;;;4.30;4.00;;;10.70;99.90;;;;;;5075194;28;20312;-91
2022/03/12 02:05:50;;;;;;;4.77;4.30;;;10.70;99.90;;;;;;5074768;28;20235;-79
2022/03/12 02:08:17;;;;;;;4.23;3.83;;;10.70;99.90;;;;;;5075005;28;20222;-89
2022/03/12 02:10:52;;;;;;;4.47;3.50;;;10.60;99.90;;;;;;5074446;28;20202;-79
2022/03/12 02:13:19;;;;;;;4.10;3.80;;;10.60;99.90;;;;;;5074222;28;20224;-78
2022/03/12 02:15:46;;;;;;;3.83;3.53;;;10.60;99.90;;;;;;5074789;28;20201;-78
2022/03/12 02:18:14;;;;;;;4.00;3.70;;;10.60;99.90;;;;;;5074459;28;20190;-79
2022/03/12 02:20:44;;;;;;;4.85;4.15;;;10.60;99.90;;;;;;5074306;28;20442;-81
2022/03/12 02:23:11;;;;;;;4.17;3.30;;;10.60;99.90;;;;;;5074300;28;20206;-90
2022/03/12 02:25:41;;;;;;;3.80;3.50;;;10.60;99.90;;;;;;5074306;28;20227;-87
2022/03/12 02:28:18;;;;;;;3.50;3.20;;;10.70;99.90;;;;;;5073796;28;20694;-88
2022/03/12 02:30:48;;;;;;;3.43;3.13;;;10.70;99.90;;;;;;5073422;28;20282;-93
2022/03/12 02:33:20;;;;;;;3.33;3.03;;;10.70;99.90;;;;;;5074308;28;20611;-79
2022/03/12 02:35:47;;;;;;;3.67;2.90;;;10.70;99.90;;;;;;5073808;28;20209;-86
2022/03/12 02:38:15;;;;;;;3.50;3.20;;;10.80;99.90;;;;;;5074026;28;20201;-84
2022/03/12 02:40:44;;;;;;;3.47;3.20;;;10.80;99.90;;;;;;5073884;28;20206;-79
2022/03/12 02:43:12;;;;;;;3.77;3.10;;;10.70;99.90;;;;;;5073488;28;20205;-82
2022/03/12 02:45:39;;;;;;;4.03;3.65;;;10.70;99.90;;;;;;5073249;28;20435;-78
2022/03/12 02:48:10;;;;;;;3.77;3.47;;;10.70;99.90;;;;;;5073978;28;20202;-79
2022/03/12 02:50:37;;;;;;;3.97;3.30;;;10.70;99.90;;;;;;5073659;28;20198;-78
2022/03/12 02:53:05;;;;;;;3.13;2.93;;;10.70;99.90;;;;;;5073512;28;20657;-81
2022/03/12 02:55:41;;;;;;;3.70;3.50;;;10.60;99.90;;;;;;5073578;28;20264;-83
2022/03/12 02:58:10;;;;;;;3.60;3.30;;;10.60;99.90;;;;;;5073711;28;20241;-79
2022/03/12 03:00:38;;;;;;;3.50;3.30;;;10.60;99.90;;;;;;5073617;28;20198;-91
2022/03/12 03:03:06;;;;;;;3.90;3.60;;;10.60;99.90;;;;;;5073487;28;20209;-88
2022/03/12 03:05:45;;;;;;;4.50;4.13;;;10.50;99.90;;;;;;5073586;28;20213;-89
2022/03/12 03:08:13;;;;;;;4.00;3.50;;;10.50;99.90;;;;;;5073333;28;20206;-89
2022/03/12 03:10:42;;;;;;;4.10;3.60;;;10.50;99.90;;;;;;5072986;28;20321;-78
2022/03/12 03:13:43;;;;;;;3.90;3.60;;;10.60;99.90;;;;;;5073054;28;20229;-82
2022/03/12 03:16:15;;;;;;;4.37;3.97;;;10.50;99.90;;;;;;5073850;28;20238;-81
2022/03/12 03:18:43;;;;;;;4.73;4.33;;;10.40;99.90;;;;;;5073896;28;20216;-83
2022/03/12 03:21:13;;;;;;;4.40;4.00;;;10.50;99.90;;;;;;5073663;28;20285;-81
2022/03/12 03:23:43;;;;;;;4.63;3.97;;;10.50;99.90;;;;;;5073236;28;20194;-79
2022/03/12 03:26:10;;;;;;;4.57;4.07;;;10.50;99.90;;;;;;5072871;28;20271;-81
2022/03/12 03:28:37;;;;;;;4.73;4.00;;;10.60;99.90;;;;;;5073257;28;20208;-82
2022/03/12 03:31:07;;;;;;;4.80;4.33;;;10.60;99.90;;;;;;5073346;28;20192;-79
2022/03/12 03:33:34;;;;;;;4.70;4.30;;;10.60;99.90;;;;;;5072689;28;20432;-79
2022/03/12 03:36:01;;;;;;;4.83;4.33;;;10.50;99.90;;;;;;5072793;28;20206;-79
2022/03/12 03:38:29;;;;;;;4.47;4.17;;;10.60;99.90;;;;;;5073183;28;20538;-78
2022/03/12 03:40:57;;;;;;;4.63;4.23;;;10.70;99.90;;;;;;5074780;28;20656;-78
2022/03/12 03:43:25;;;;;;;5.23;3.80;;;10.70;99.90;;;;;;5076933;28;20205;-78
2022/03/12 03:45:58;;;;;;;5.07;4.27;;;10.80;99.90;;;;;;5076784;28;20566;-89
2022/03/12 03:48:26;;;;;;;5.00;4.03;;;10.60;99.90;;;;;;5076805;28;20212;-79
2022/03/12 03:50:54;;;;;;;4.30;3.93;;;10.70;99.90;;;;;;5076614;28;20703;-78
2022/03/12 03:53:26;;;;;;;4.60;4.20;;;10.60;99.90;;;;;;5076473;28;20213;-78
2022/03/12 03:55:56;;;;;;;4.47;4.07;;;10.60;99.90;;;;;;5076733;28;20225;-78
2022/03/12 03:58:25;;;;;;;6.07;4.38;;;10.50;99.90;;;;;;5077107;28;20435;-78
2022/03/12 04:00:57;;;;;;;5.30;3.60;;;10.40;99.90;;;;;;5077464;28;20281;-92
2022/03/12 04:03:32;;;;;;;4.03;3.30;;;10.40;99.90;;;;;;5077499;28;20206;-81
2022/03/12 04:06:01;;;;;;;3.90;3.10;;;10.30;99.90;;;;;;5077173;28;20202;-86
2022/03/12 04:08:29;;;;;;;5.80;3.43;;;10.30;99.90;;;;;;5077521;28;20251;-78
2022/03/12 04:10:56;;;;;;;4.10;3.70;;;10.20;99.90;;;;;;5077648;28;20232;-80
2022/03/12 04:13:24;;;;;;;6.83;4.10;;;10.20;99.90;;;;;;5076481;28;20628;-87
2022/03/12 04:15:53;;;;;;;5.13;3.97;;;10.10;99.90;;;;;;5076927;28;20208;-91
2022/03/12 04:18:21;;;;;;;4.63;4.03;;;10.20;99.90;;;;;;5076935;28;20233;-85
2022/03/12 04:20:51;;;;;;;5.10;4.60;;;10.20;99.90;;;;;;5077185;28;20205;-77
2022/03/12 04:23:21;;;;;;;4.30;3.87;;;10.30;99.90;;;;;;5076402;28;20286;-81
2022/03/12 04:25:48;;;;;;;4.83;4.27;;;10.30;99.90;;;;;;5076335;28;20210;-79
2022/03/12 04:28:15;;;;;;;5.40;4.50;;;10.10;99.90;;;;;;5076191;28;20201;-85
2022/03/12 04:30:42;;;;;;;4.60;4.10;;;10.20;99.90;;;;;;5076057;28;20221;-85
2022/03/12 04:33:10;;;;;;;5.33;4.13;;;10.20;99.90;;;;;;5076225;28;20206;-78
2022/03/12 04:35:38;;;;;;;5.83;4.17;;;10.10;99.90;;;;;;5075279;28;20202;-79
2022/03/12 04:38:09;;;;;;;7.43;4.37;;;10.10;99.90;;;;;;5072396;28;20548;-78
2022/03/12 04:40:37;;;;;;;5.33;4.30;;;10.10;99.90;;;;;;5075322;28;20228;-79
2022/03/12 04:43:06;;;;;;;4.80;4.30;;;10.00;99.90;;;;;;5073887;28;20210;-78
2022/03/12 04:45:34;;;;;;;7.77;3.63;;;10.10;99.90;;;;;;5075807;28;20197;-79
2022/03/12 04:48:01;;;;;;;5.07;4.38;;;10.00;99.90;;;;;;5076061;28;20506;-78
2022/03/12 04:50:28;;;;;;;4.67;3.90;;;10.00;99.90;;;;;;5076331;28;20314;-78
2022/03/12 04:52:59;;;;;;;9.80;4.23;;;10.00;99.90;;;;;;5074444;28;20221;-87
2022/03/12 04:55:29;;;;;;;5.37;4.00;;;10.00;99.90;;;;;;5075709;28;20209;-80
2022/03/12 04:57:56;;;;;;;7.17;3.70;;;9.90;99.90;;;;;;5075622;28;20216;-90
2022/03/12 05:00:26;;;;;;;5.53;4.00;;;9.90;99.90;;;;;;5075444;28;20210;-88
2022/03/12 05:02:55;;;;;;;4.30;3.67;;;9.90;99.90;;;;;;5075711;28;20209;-82
2022/03/12 05:05:22;;;;;;;4.17;3.87;;;9.80;99.90;;;;;;5074958;28;20202;-79
2022/03/12 05:07:50;;;;;;;10.40;4.10;;;9.80;99.90;;;;;;5074968;28;20202;-79
2022/03/12 05:10:18;;;;;;;9.07;4.47;;;9.80;99.90;;;;;;5074876;28;20221;-87
2022/03/12 05:12:48;;;;;;;5.25;4.40;;;9.70;99.90;;;;;;5074011;28;20443;-88
2022/03/12 05:15:17;;;;;;;5.40;3.57;;;9.70;99.90;;;;;;5075024;28;20205;-81
2022/03/12 05:17:47;;;;;;;5.70;3.70;;;9.80;99.90;;;;;;5074767;28;20190;-83
2022/03/12 05:20:19;;;;;;;8.27;4.00;;;9.80;99.90;;;;;;5074826;28;20212;-81
2022/03/12 05:22:46;;;;;;;6.20;4.30;;;9.70;99.90;;;;;;5074736;28;20209;-83
2022/03/12 05:25:13;;;;;;;4.77;3.87;;;9.60;99.90;;;;;;5074877;28;20205;-83
2022/03/12 05:27:40;;;;;;;5.70;4.20;;;9.60;99.90;;;;;;5074807;28;20201;-87
2022/03/12 05:30:10;;;;;;;4.90;4.10;;;9.60;99.90;;;;;;5074836;28;20232;-82
2022/03/12 05:32:37;;;;;;;6.67;4.23;;;9.50;99.90;;;;;;5075056;28;20190;-84
2022/03/12 05:35:04;;;;;;;7.97;4.47;;;9.50;99.90;;;;;;5074394;28;20661;-80
2022/03/12 05:37:32;;;;;;;6.50;5.38;;;9.60;99.90;;;;;;5073317;28;20435;-91
2022/03/12 05:40:00;;;;;;;8.77;5.07;;;9.70;99.90;;;;;;5074573;28;20201;-89
2022/03/12 05:42:27;;;;;;;6.47;4.50;;;9.50;99.90;;;;;;5074644;28;20740;-80
2022/03/12 05:44:57;;;;;;;4.93;4.40;;;9.50;99.90;;;;;;5074638;28;20201;-85
2022/03/12 05:47:25;;;;;;;7.30;4.50;;;9.50;99.90;;;;;;5074429;28;20257;-81
2022/03/12 05:49:53;;;;;;;5.63;4.40;;;9.40;99.90;;;;;;5074098;28;20226;-80
2022/03/12 05:52:20;;;;;;;4.77;4.20;;;9.40;99.90;;;;;;5069078;28;20221;-79
2022/03/12 05:54:48;;;;;;;4.77;4.23;;;9.40;99.90;;;;;;5054095;28;20220;-88
2022/03/12 05:57:15;;;;;;;7.23;4.03;;;9.40;99.90;;;;;;5054111;28;20211;-81
2022/03/12 05:59:42;;;;;;;4.30;3.90;;;9.40;99.90;;;;;;5054279;28;20210;-80
2022/03/12 06:02:09;;;;;;;6.25;4.90;;;9.30;99.90;;;;;;5063742;28;20481;-81
2022/03/12 06:04:37;;;;;;;6.07;4.43;;;9.40;99.90;;;;;;5072529;28;20541;-79
2022/03/12 06:07:05;;;;;;;4.30;3.77;;;9.40;99.90;;;;;;5072232;28;20542;-78
2022/03/12 06:09:32;;;;;;;5.20;4.57;;;9.30;99.90;;;;;;5073204;28;20723;-80
2022/03/12 06:11:59;;;;;;;4.57;4.17;;;9.30;99.90;;;;;;5072773;28;20217;-79
2022/03/12 06:14:26;;;;;;;7.83;4.00;;;9.40;99.90;;;;;;5074120;28;20201;-79
2022/03/12 06:16:53;;;;;;;5.20;4.07;;;9.30;99.90;;;;;;5074116;28;20190;-81
2022/03/12 06:19:21;;;;;;;10.27;4.20;;;9.30;99.90;;;;;;5073506;28;20221;-80
2022/03/12 06:21:49;;;;;;;6.80;4.30;;;9.20;99.90;;;;;;5074075;28;20202;-80
2022/03/12 06:24:16;;;;;;;4.83;3.90;;;9.10;99.90;;;;;;5073929;28;20206;-79
2022/03/12 06:26:43;;;;;;;5.78;4.90;;;9.20;99.90;;;;;;5072647;28;20435;-80
2022/03/12 06:29:13;;;;;;;5.80;3.80;;;9.40;99.90;;;;;;5074233;28;20216;-79
2022/03/12 06:31:42;;;;;;;6.50;4.50;;;9.40;99.90;;;;;;5073859;28;20224;-89
2022/03/12 06:34:12;;;;;;;4.87;3.90;;;9.50;99.90;;;;;;5073698;28;20205;-81
2022/03/12 06:36:40;;;;;;;6.20;3.73;;;9.50;99.90;;;;;;5074008;28;20198;-83
2022/03/12 06:39:09;;;;;;;8.20;3.83;;;9.30;99.90;;;;;;5073044;28;20198;-82
2022/03/12 06:41:41;;;;;;;5.70;3.70;;;9.30;99.90;;;;;;5073781;28;20327;-82
2022/03/12 06:44:11;;;;;;;5.47;3.63;;;9.30;99.90;;;;;;5073885;28;20244;-79
2022/03/12 06:46:38;;;;;;;5.53;3.30;;;9.30;99.90;;;;;;5073665;28;20572;-79
2022/03/12 06:49:05;;;;;;;6.50;3.87;;;9.30;99.90;;;;;;5073122;28;20221;-80
2022/03/12 06:51:32;;;;;;;4.63;3.57;;;9.30;99.90;;;;;;5073265;28;20230;-80
2022/03/12 06:53:59;;;;;;;5.27;3.60;;;9.30;99.90;;;;;;5073166;28;20550;-83
2022/03/12 06:56:28;;;;;;;5.23;3.70;;;9.30;99.90;;;;;;5073383;28;20202;-79
2022/03/12 06:58:55;;;;;;;6.23;3.50;;;9.30;99.90;;;;;;5073132;28;20206;-80
2022/03/12 07:01:23;;;;;;;7.00;3.57;;;9.40;99.90;;;;;;5073482;28;20190;-81
2022/03/12 07:03:50;;;;;;;6.50;3.50;;;9.40;99.90;;;;;;5073339;28;20190;-78
2022/03/12 07:06:17;;;;;;;4.23;3.20;;;9.40;99.90;;;;;;5073359;28;20201;-81
2022/03/12 07:08:44;;;;;;;5.90;4.13;;;9.50;99.90;;;;;;5073626;28;20205;-87
2022/03/12 07:11:11;;;;;;;8.33;3.73;;;9.70;99.90;;;;;;5073548;28;20272;-79
2022/03/12 07:13:39;;;;;;;8.47;3.30;;;9.70;99.90;;;;;;5073987;28;20271;-77
2022/03/12 07:16:06;;;;;;;6.53;3.90;;;9.60;99.90;;;;;;5072013;28;20430;-86
2022/03/12 07:18:33;;;;;;;4.43;3.50;;;9.70;99.90;;;;;;5073176;28;20213;-84
2022/03/12 07:21:00;;;;;;;6.13;3.77;;;9.70;99.90;;;;;;5073125;28;20269;-80
2022/03/12 07:23:27;;;;;;;7.67;3.43;;;9.70;99.90;;;;;;5073325;28;20214;-77
2022/03/12 07:25:55;;;;;;;7.47;4.20;;;9.70;99.90;;;;;;5073387;28;20216;-80
2022/03/12 07:28:22;;;;;;;6.67;3.63;;;9.80;99.90;;;;;;5073095;28;20205;-78
2022/03/12 07:30:51;;;;;;;4.67;3.17;;;9.70;99.90;;;;;;5073081;28;20695;-84
2022/03/12 07:33:18;;;;;;;6.97;3.30;;;9.80;99.90;;;;;;5073353;28;20563;-81
2022/03/12 07:35:45;;;;;;;7.20;3.83;;;10.00;99.90;;;;;;5072493;28;20198;-86
2022/03/12 07:38:14;;;;;;;5.90;3.77;;;10.10;99.90;;;;;;5072554;28;20288;-80
2022/03/12 07:40:41;;;;;;;6.37;3.10;;;10.10;99.90;;;;;;5072371;28;20202;-80
2022/03/12 07:43:09;;;;;;;6.13;3.13;;;10.30;99.90;;;;;;5072704;28;20200;-90
2022/03/12 07:45:37;;;;;;;3.40;2.93;;;10.30;99.90;;;;;;5072382;28;20264;-80
2022/03/12 07:48:07;;;;;;;6.80;3.10;;;10.30;99.90;;;;;;5072201;28;20198;-80
2022/03/12 07:50:34;;;;;;;6.07;3.50;;;10.40;99.90;;;;;;5072760;28;20233;-85
2022/03/12 07:53:01;;;;;;;6.83;3.63;;;10.30;99.90;;;;;;5072540;28;20263;-79
2022/03/12 07:55:28;;;;;;;7.10;3.00;;;10.40;99.90;;;;;;5072940;28;20201;-81
2022/03/12 07:57:55;;;;;;;6.37;3.57;;;10.40;99.90;;;;;;5073191;28;20198;-84
2022/03/12 08:00:28;;;;;;;6.07;3.53;;;10.50;99.90;;;;;;5073093;28;20197;-79
2022/03/12 08:02:55;;;;;;;7.70;3.77;;;10.40;99.90;;;;;;5072759;28;20205;-82
2022/03/12 08:05:25;;;;;;;5.37;3.70;;;10.50;99.90;;;;;;5072843;28;20726;-81
2022/03/12 08:07:53;;;;;;;4.50;3.00;;;10.50;99.90;;;;;;5073174;28;20247;-80
2022/03/12 08:10:19;;;;;;;9.13;4.13;;;10.30;99.90;;;;;;5073548;28;20260;-79
2022/03/12 08:12:46;;;;;;;5.60;3.73;;;10.30;99.90;;;;;;5073006;28;20221;-79
2022/03/12 08:15:14;;;;;;;8.07;3.60;;;10.30;99.90;;;;;;5072438;28;20209;-84
2022/03/12 08:17:41;;;;;;;6.27;3.33;;;10.40;99.90;;;;;;5072874;28;20190;-79
2022/03/12 08:20:08;;;;;;;4.50;3.50;;;10.60;99.90;;;;;;5073825;28;20206;-87
2022/03/12 08:22:41;;;;;;;5.37;3.20;;;10.50;99.90;;;;;;5073651;28;20386;-79
2022/03/12 08:25:11;;;;;;;8.52;4.18;;;10.70;99.90;;;;;;5073566;28;20489;-82
2022/03/12 08:27:42;;;;;;;6.07;3.23;;;10.60;99.90;;;;;;5074889;28;20385;-82
2022/03/12 08:30:10;;;;;;;7.90;3.30;;;10.60;99.90;;;;;;5077753;28;20197;-81
2022/03/12 08:32:39;;;;;;;10.20;3.67;;;10.60;99.90;;;;;;5078573;28;20198;-81
2022/03/12 08:35:09;;;;;;;7.30;3.90;;;10.60;99.90;;;;;;5078038;28;20194;-87
2022/03/12 08:37:36;;;;;;;6.57;3.40;;;10.60;99.90;;;;;;5077122;28;20669;-80
2022/03/12 08:40:06;;;;;;;9.77;4.00;;;10.70;99.90;;;;;;5078456;28;20645;-80
2022/03/12 08:42:34;;;;;;;7.93;3.93;;;10.70;99.90;;;;;;5078010;28;20194;-87
2022/03/12 08:45:02;;;;;;;7.83;3.67;;;10.70;99.90;;;;;;5076841;28;20194;-82
2022/03/12 08:47:29;;;;;;;8.90;3.40;;;10.70;99.90;;;;;;5062782;28;20229;-82
2022/03/12 08:49:56;;;;;;;7.45;4.25;;;10.80;99.90;;;;;;5056078;28;20948;-83
2022/03/12 08:52:23;;;;;;;9.03;3.90;;;11.10;99.90;;;;;;5055431;28;20297;-81
2022/03/12 08:54:51;;;;;;;8.73;3.63;;;11.00;99.90;;;;;;5063478;28;20206;-80
2022/03/12 08:57:19;;;;;;;7.83;2.90;;;11.10;99.90;;;;;;5075384;28;20248;-78
2022/03/12 08:59:47;;;;;;;5.67;3.57;;;11.20;99.90;;;;;;5074137;28;20664;-87
2022/03/12 09:02:14;;;;;;;6.33;3.13;;;11.20;99.90;;;;;;5075481;28;20229;-81
2022/03/12 09:04:41;;;;;;;4.80;2.97;;;11.20;99.90;;;;;;5070632;28;20630;-89
2022/03/12 09:07:08;;;;;;;5.73;3.53;;;11.30;99.90;;;;;;5075969;28;20190;-92
2022/03/12 09:09:36;;;;;;;9.47;3.33;;;11.50;99.90;;;;;;5075987;28;20395;-79
2022/03/12 09:12:04;;;;;;;7.27;2.93;;;11.50;99.90;;;;;;5072266;28;20225;-79
2022/03/12 09:14:34;;;;;;;8.73;3.57;;;11.60;99.90;;;;;;5075052;28;20194;-79
2022/03/12 09:17:02;;;;;;;5.50;3.60;;;11.70;99.90;;;;;;5075390;28;20194;-83
2022/03/12 09:19:29;;;;;;;6.00;3.67;;;11.80;99.90;;;;;;5075395;28;20202;-79
2022/03/12 09:21:57;;;;;;;7.57;3.57;;;11.80;99.90;;;;;;5075553;28;20214;-79
2022/03/12 09:24:30;;;;;;;10.03;3.30;;;11.80;99.90;;;;;;5075260;28;20216;-79
2022/03/12 09:26:57;;;;;;;7.23;3.70;;;11.80;99.90;;;;;;5075342;28;20205;-85
2022/03/12 09:29:26;;;;;;;7.87;3.33;;;11.80;99.90;;;;;;5075219;28;20234;-80
2022/03/12 09:31:54;;;;;;;7.07;3.20;;;12.00;99.90;;;;;;5074919;28;20230;-81
2022/03/12 09:34:21;;;;;;;11.73;2.87;;;12.00;99.90;;;;;;5074610;28;20212;-80
2022/03/12 09:36:48;;;;;;;5.80;3.67;;;11.90;99.90;;;;;;5075344;28;20442;-80
2022/03/12 09:39:15;;;;;;;5.70;2.57;;;11.80;99.90;;;;;;5075003;28;20546;-78
2022/03/12 09:41:43;;;;;;;6.27;2.73;;;11.80;99.90;;;;;;5076561;28;20194;-87
2022/03/12 09:44:10;;;;;;;5.37;2.67;;;11.80;99.90;;;;;;5076256;28;20296;-88
2022/03/12 09:46:38;;;;;;;7.90;2.70;;;11.80;99.90;;;;;;5076094;28;20576;-79
2022/03/12 09:49:07;;;;;;;7.33;2.83;;;11.80;99.90;;;;;;5076484;28;20195;-84
2022/03/12 09:51:34;;;;;;;6.57;3.20;;;11.90;99.90;;;;;;5077603;28;20225;-89
2022/03/12 09:54:00;;;;;;;6.80;2.93;;;12.20;99.90;;;;;;5091029;28;20208;-85
2022/03/12 09:56:27;;;;;;;5.30;3.13;;;12.30;99.90;;;;;;5094610;28;20195;-82
2022/03/12 09:58:54;;;;;;;3.97;2.73;;;12.50;99.90;;;;;;5093968;28;20204;-86
2022/03/12 10:01:21;;;;;;;8.27;3.70;;;12.50;99.90;;;;;;5073467;28;20434;-88
2022/03/12 10:03:51;;;;;;;4.93;2.67;;;12.80;99.90;;;;;;5074591;28;20432;-86
2022/03/12 10:06:25;;;;;;;7.90;2.83;;;12.50;99.90;;;;;;5074586;28;20211;-87
2022/03/12 10:08:53;;;;;;;5.30;2.90;;;12.40;99.90;;;;;;5075238;28;20226;-88
2022/03/12 10:11:24;;;;;;;5.33;3.10;;;12.50;99.90;;;;;;5075761;28;20219;-86
2022/03/12 10:13:57;;;;;;;6.30;2.57;;;12.60;99.90;;;;;;5077073;28;20269;-88
2022/03/12 10:16:29;;;;;;;6.13;2.60;;;12.50;99.90;;;;;;5078921;28;20190;-91
2022/03/12 10:18:57;;;;;;;4.43;2.50;;;12.60;99.90;;;;;;5080613;28;20204;-85
2022/03/12 10:21:25;;;;;;;5.30;3.03;;;12.50;99.90;;;;;;5081086;28;20233;-80
2022/03/12 10:23:53;;;;;;;6.22;3.10;;;12.60;99.90;;;;;;5081020;28;20424;-83
2022/03/12 10:26:22;;;;;;;6.33;2.57;;;12.70;99.90;;;;;;5078326;28;20297;-82
2022/03/12 10:28:49;;;;;;;3.90;2.23;;;12.60;99.90;;;;;;5078592;28;20255;-84
2022/03/12 10:31:19;;;;;;;5.27;2.30;;;12.70;99.90;;;;;;5081520;28;20210;-86
2022/03/12 10:33:48;;;;;;;3.33;2.30;;;12.70;99.90;;;;;;5082464;28;20646;-82
2022/03/12 10:36:17;;;;;;;5.10;2.63;;;12.60;99.90;;;;;;5082355;28;20664;-83
2022/03/12 10:38:48;;;;;;;2.70;1.80;;;12.70;99.90;;;;;;5082505;28;20229;-85
2022/03/12 10:41:16;;;;;;;5.47;2.20;;;12.90;99.90;;;;;;5082710;28;20206;-88
2022/03/12 10:43:47;;;;;;;3.87;2.00;;;12.80;99.90;;;;;;5080980;28;20222;-81
2022/03/12 10:46:21;;;;;;;4.60;2.33;;;12.50;99.90;;;;;;5080486;28;20203;-87
2022/03/12 10:48:51;;;;;;;7.33;2.50;;;12.50;99.90;;;;;;5077465;28;20273;-78
2022/03/12 10:51:19;;;;;;;6.97;2.57;;;12.50;99.90;;;;;;5074722;28;20251;-78
2022/03/12 10:53:49;;;;;;;4.13;2.10;;;12.70;99.90;;;;;;5073312;28;20213;-79
2022/03/12 10:56:16;;;;;;;7.37;2.60;;;13.00;99.90;;;;;;5073008;28;20208;-79
2022/03/12 10:58:42;;;;;;;4.23;2.47;;;13.00;99.90;;;;;;5073574;28;20195;-77
2022/03/12 11:01:09;;;;;;;9.13;2.97;;;13.00;99.90;;;;;;5073344;28;20556;-76
2022/03/12 11:03:37;;;;;;;6.67;2.80;;;13.20;99.90;;;;;;5073658;28;20538;-77
2022/03/12 11:06:06;;;;;;;5.17;2.90;;;13.30;99.90;;;;;;5073548;28;20200;-76
2022/03/12 11:08:34;;;;;;;4.90;2.70;;;13.30;99.90;;;;;;5073869;28;20210;-82
2022/03/12 11:11:11;;;;;;;6.47;2.53;;;13.00;99.90;;;;;;5073793;28;20207;-78
2022/03/12 11:13:40;;;;;;;6.17;2.57;;;13.10;99.90;;;;;;5073194;28;20223;-76
2022/03/12 11:16:12;;;;;;;4.57;2.70;;;13.10;99.90;;;;;;5073111;28;20212;-77
2022/03/12 11:18:41;;;;;;;4.30;2.27;;;13.20;99.90;;;;;;5073341;28;20207;-78
2022/03/12 11:21:07;;;;;;;5.17;2.30;;;13.30;99.90;;;;;;5072734;28;20553;-88
2022/03/12 11:23:34;;;;;;;5.53;2.33;;;13.30;99.90;;;;;;5072697;28;20201;-77
2022/03/12 11:26:06;;;;;;;3.10;2.10;;;13.30;99.90;;;;;;5073152;28;20200;-77
2022/03/12 11:28:35;;;;;;;7.03;2.57;;;13.30;99.90;;;;;;5072826;28;20604;-82
2022/03/12 11:31:04;;;;;;;5.23;2.20;;;13.40;99.90;;;;;;5072550;28;20245;-78
2022/03/12 11:33:30;;;;;;;4.83;2.30;;;13.30;99.90;;;;;;5072971;28;20216;-77
2022/03/12 11:36:03;;;;;;;4.88;2.28;;;13.50;99.90;;;;;;5072383;28;20443;-77
2022/03/12 11:38:30;;;;;;;8.73;2.70;;;13.40;99.90;;;;;;5072803;28;20552;-78
2022/03/12 11:41:08;;;;;;;6.30;2.40;;;13.30;99.90;;;;;;5072706;28;20257;-76
2022/03/12 11:43:39;;;;;;;4.77;1.93;;;13.50;99.90;;;;;;5072727;28;20209;-76
2022/03/12 11:46:09;;;;;;;6.03;2.17;;;13.70;99.90;;;;;;5072797;28;20204;-75
2022/03/12 11:48:38;;;;;;;8.63;2.33;;;13.80;99.90;;;;;;5072388;28;20219;-80
2022/03/12 11:51:17;;;;;;;5.23;2.37;;;13.70;99.90;;;;;;5072610;28;20216;-77
2022/03/12 11:53:45;;;;;;;8.80;2.33;;;13.70;99.90;;;;;;5070778;28;20216;-82
2022/03/12 11:56:16;;;;;;;4.47;2.33;;;13.60;99.90;;;;;;5070256;28;20205;-73
2022/03/12 11:58:44;;;;;;;4.70;2.23;;;13.70;99.90;;;;;;5065858;28;20206;-78
2022/03/12 12:01:19;;;;;;;5.00;2.37;;;13.80;99.90;;;;;;5054345;28;20220;-73
2022/03/12 12:03:46;;;;;;;5.73;2.17;;;13.90;99.90;;;;;;5056076;28;20642;-72
2022/03/12 12:06:13;;;;;;;6.33;2.30;;;14.00;99.90;;;;;;5056359;28;20206;-78
2022/03/12 12:08:40;;;;;;;6.87;2.43;;;14.30;99.90;;;;;;5056906;28;20194;-86
2022/03/12 12:11:07;;;;;;;6.80;2.27;;;14.00;99.90;;;;;;5057061;28;20276;-78
2022/03/12 12:13:44;;;;;;;5.40;1.70;;;13.90;99.90;;;;;;5057010;28;20226;-86
2022/03/12 12:16:13;;;;;;;5.47;1.93;;;14.20;99.90;;;;;;5056913;28;20271;-76
2022/03/12 12:18:40;;;;;;;3.90;1.87;;;14.20;99.90;;;;;;5056086;28;20288;-73
2022/03/12 12:21:06;;;;;;;4.07;2.13;;;14.20;99.90;;;;;;5055925;28;20206;-74
2022/03/12 12:23:33;;;;;;;6.33;2.30;;;14.40;99.90;;;;;;5055900;28;20197;-78
2022/03/12 12:26:08;;;;;;;5.97;2.38;;;14.60;99.90;;;;;;5065504;28;20421;-78
2022/03/12 12:28:50;;;;;;;5.50;2.70;;;14.80;99.90;;;;;;5067910;28;20198;-85
2022/03/12 12:31:24;;;;;;;5.83;2.20;;;14.70;99.90;;;;;;5068583;28;20198;-75
2022/03/12 12:33:53;;;;;;;6.97;2.37;;;14.70;99.90;;;;;;5061806;28;20224;-75
2022/03/12 12:36:20;;;;;;;7.60;2.30;;;14.70;99.90;;;;;;5060638;28;20199;-75
2022/03/12 12:39:07;;;;;;;6.53;2.50;;;14.60;99.90;;;;;;5067608;28;20202;-83
2022/03/12 12:42:01;;;;;;;6.43;2.37;;;14.70;99.90;;;;;;5065333;28;20234;-77
2022/03/12 12:44:40;;;;;;;7.20;3.00;;;14.70;99.90;;;;;;5046994;28;20217;-75
2022/03/12 12:47:10;;;;;;;8.73;2.63;;;14.70;99.90;;;;;;5057280;28;20198;-81
2022/03/12 12:49:37;;;;;;;7.53;2.00;;;14.60;99.90;;;;;;5057166;28;20195;-87
2022/03/12 12:52:05;;;;;;;7.93;2.20;;;14.50;99.90;;;;;;5054901;28;20329;-77
2022/03/12 12:54:50;;;;;;;5.33;1.87;;;14.40;99.90;;;;;;5060581;28;20187;-85
2022/03/12 12:57:20;;;;;;;5.87;2.40;;;14.70;99.90;;;;;;5061307;28;20190;-84